Time;durP1;ratioP1;P1;durP2;ratioP2;P2;SDS_P1;SDS_P2;PMS_P1;PMS_P2;Temp;Humidity;BMP_temperature;BMP_pressure;BME280_temperature;BME280_humidity;BME280_pressure;Samples;Min_cycle;Max_cycle;Signal;HPM_P1;HPM_P2
2022/07/23 00:00:49;;;;;;;24.52;16.90;;;17.60;99.90;;;;;;5029918;28;20037;-57
2022/07/23 00:03:15;;;;;;;24.83;17.33;;;17.50;99.90;;;;;;5021659;28;20534;-59
2022/07/23 00:05:41;;;;;;;25.00;17.25;;;17.50;99.90;;;;;;5030994;28;20051;-57
2022/07/23 00:08:09;;;;;;;23.38;16.80;;;17.40;99.90;;;;;;5030340;28;20473;-57
2022/07/23 00:10:35;;;;;;;31.95;18.92;;;17.50;99.90;;;;;;5030682;28;20065;-60
2022/07/23 00:13:00;;;;;;;24.13;17.27;;;17.50;99.90;;;;;;5030530;28;20068;-59
2022/07/23 00:15:26;;;;;;;25.80;17.15;;;17.40;99.90;;;;;;5031071;28;20479;-59
2022/07/23 00:17:52;;;;;;;24.65;18.30;;;17.40;99.90;;;;;;5027192;28;20092;-60
2022/07/23 00:20:18;;;;;;;23.75;17.10;;;17.40;99.90;;;;;;5030811;28;20082;-55
2022/07/23 00:22:51;;;;;;;23.75;17.13;;;17.40;99.90;;;;;;5021654;28;20084;-57
2022/07/23 00:25:16;;;;;;;22.02;15.00;;;17.30;99.90;;;;;;5028115;28;20041;-59
2022/07/23 00:27:42;;;;;;;25.38;17.50;;;17.30;99.90;;;;;;5028779;28;20113;-56
2022/07/23 00:30:08;;;;;;;25.95;19.10;;;17.20;99.90;;;;;;5030718;28;20029;-60
2022/07/23 00:32:48;;;;;;;26.70;19.23;;;17.20;99.90;;;;;;5016441;28;20381;-60
2022/07/23 00:35:14;;;;;;;22.80;16.95;;;17.20;99.90;;;;;;5014476;28;20026;-60
2022/07/23 00:37:40;;;;;;;25.33;16.98;;;17.20;99.90;;;;;;5027206;28;20033;-58
2022/07/23 00:40:06;;;;;;;27.55;16.67;;;17.20;99.90;;;;;;5029591;28;20480;-59
2022/07/23 00:42:32;;;;;;;27.80;17.67;;;17.10;99.90;;;;;;5029332;28;20120;-58
2022/07/23 00:44:58;;;;;;;24.00;17.83;;;17.10;99.90;;;;;;5030718;28;20519;-60
2022/07/23 00:47:23;;;;;;;27.85;19.45;;;17.10;99.90;;;;;;5025320;28;20078;-59
2022/07/23 00:49:49;;;;;;;27.92;17.45;;;17.10;99.90;;;;;;5028743;28;20467;-59
2022/07/23 00:52:15;;;;;;;22.52;17.00;;;17.20;99.90;;;;;;5028695;28;20028;-60
2022/07/23 00:54:41;;;;;;;27.70;19.52;;;17.20;99.90;;;;;;5029965;28;20498;-59
2022/07/23 00:57:07;;;;;;;27.90;18.77;;;17.10;99.90;;;;;;5025340;28;20033;-59
2022/07/23 00:59:32;;;;;;;23.77;18.52;;;17.10;99.90;;;;;;5021331;28;20022;-61
2022/07/23 01:01:58;;;;;;;31.92;20.52;;;17.10;99.90;;;;;;5020370;28;20506;-58
2022/07/23 01:04:23;;;;;;;27.80;19.63;;;17.10;99.90;;;;;;5013338;28;20041;-59
2022/07/23 01:06:49;;;;;;;27.67;19.55;;;17.10;99.90;;;;;;5013051;28;20033;-59
2022/07/23 01:09:15;;;;;;;29.05;19.73;;;17.10;99.90;;;;;;5019910;28;20488;-61
2022/07/23 01:11:41;;;;;;;27.80;18.35;;;17.10;99.90;;;;;;5019659;28;20021;-56
2022/07/23 01:14:15;;;;;;;27.02;18.38;;;17.20;99.90;;;;;;5013443;28;20036;-61
2022/07/23 01:16:42;;;;;;;32.75;20.73;;;17.20;99.90;;;;;;5014456;28;20095;-61
2022/07/23 01:19:08;;;;;;;28.98;19.33;;;17.10;99.90;;;;;;5017106;28;20038;-60
2022/07/23 01:22:01;;;;;;;31.13;20.63;;;17.20;99.90;;;;;;5021547;28;20030;-60
2022/07/23 01:24:27;;;;;;;30.08;20.88;;;17.10;99.90;;;;;;5014840;28;20510;-59
2022/07/23 01:26:53;;;;;;;31.35;19.63;;;17.10;99.90;;;;;;5014919;28;20026;-59
2022/07/23 01:29:20;;;;;;;31.85;19.60;;;17.10;99.90;;;;;;5016629;28;20033;-57
2022/07/23 01:31:46;;;;;;;29.25;19.65;;;17.10;99.90;;;;;;5018333;28;20407;-60
2022/07/23 01:34:12;;;;;;;27.27;19.13;;;17.10;99.90;;;;;;5015779;28;20018;-59
2022/07/23 01:36:38;;;;;;;27.05;19.60;;;17.20;99.90;;;;;;5013960;28;20026;-57
2022/07/23 01:39:05;;;;;;;26.88;19.80;;;17.20;99.90;;;;;;5014949;28;20089;-58
2022/07/23 01:41:30;;;;;;;28.90;20.05;;;17.20;99.90;;;;;;5023172;28;20080;-59
2022/07/23 01:43:56;;;;;;;29.95;18.40;;;17.20;99.90;;;;;;5028650;28;20041;-59
2022/07/23 01:46:22;;;;;;;27.58;18.48;;;17.20;99.90;;;;;;5029185;28;20092;-58
2022/07/23 01:48:48;;;;;;;25.67;18.60;;;17.20;99.90;;;;;;5023984;28;20035;-60
2022/07/23 01:51:14;;;;;;;31.15;18.75;;;17.20;99.90;;;;;;5027168;28;20491;-58
2022/07/23 01:53:39;;;;;;;27.00;19.65;;;17.20;99.90;;;;;;5025747;28;20033;-60
2022/07/23 01:56:05;;;;;;;28.58;20.25;;;17.20;99.90;;;;;;5028494;28;20026;-59
2022/07/23 01:58:31;;;;;;;28.75;18.05;;;17.20;99.90;;;;;;5028430;28;20033;-58
2022/07/23 02:00:57;;;;;;;28.98;20.23;;;17.10;99.90;;;;;;5026898;28;20028;-58
2022/07/23 02:03:23;;;;;;;30.70;20.95;;;17.10;99.90;;;;;;5028679;28;20030;-58
2022/07/23 02:05:49;;;;;;;27.92;19.35;;;17.10;99.90;;;;;;5026301;28;20057;-60
2022/07/23 02:08:15;;;;;;;32.53;21.13;;;17.10;99.90;;;;;;5028779;28;20053;-59
2022/07/23 02:10:40;;;;;;;27.35;19.17;;;17.10;99.90;;;;;;5028351;28;20510;-60
2022/07/23 02:13:06;;;;;;;27.95;19.60;;;17.10;99.90;;;;;;5028285;28;20835;-60
2022/07/23 02:15:32;;;;;;;27.75;19.65;;;17.10;99.90;;;;;;5028619;28;20499;-58
2022/07/23 02:17:58;;;;;;;28.65;19.75;;;17.00;99.90;;;;;;5024594;28;20652;-58
2022/07/23 02:20:24;;;;;;;31.35;19.90;;;17.00;99.90;;;;;;5019789;28;20112;-59
2022/07/23 02:22:50;;;;;;;40.25;21.15;;;17.00;99.90;;;;;;5023758;28;20046;-58
2022/07/23 02:25:15;;;;;;;38.63;22.42;;;17.00;99.90;;;;;;5027116;28;20025;-60
2022/07/23 02:27:41;;;;;;;36.65;21.35;;;17.00;99.90;;;;;;5030154;28;20033;-60
2022/07/23 02:30:07;;;;;;;32.13;21.50;;;17.00;99.90;;;;;;5027540;28;20060;-61
2022/07/23 02:32:33;;;;;;;32.80;21.13;;;17.00;99.90;;;;;;5029584;28;20309;-60
2022/07/23 02:34:59;;;;;;;35.15;21.20;;;17.00;99.90;;;;;;5030231;28;20017;-60
2022/07/23 02:37:24;;;;;;;28.45;20.52;;;16.90;99.90;;;;;;5036823;28;20029;-61
2022/07/23 02:39:50;;;;;;;36.90;22.63;;;16.90;99.90;;;;;;5031681;28;20029;-60
2022/07/23 02:42:16;;;;;;;34.20;21.95;;;16.80;99.90;;;;;;5031311;28;20096;-61
2022/07/23 02:44:41;;;;;;;36.67;23.13;;;16.80;99.90;;;;;;5029217;28;20366;-59
2022/07/23 02:47:07;;;;;;;34.00;22.58;;;16.70;99.90;;;;;;5033229;28;20104;-59
2022/07/23 02:49:33;;;;;;;36.92;21.73;;;16.70;99.90;;;;;;5030061;28;20089;-61
2022/07/23 02:51:58;;;;;;;34.58;23.95;;;16.70;99.90;;;;;;5024511;28;20056;-61
2022/07/23 02:54:24;;;;;;;35.90;22.50;;;16.60;99.90;;;;;;5031483;28;20076;-61
2022/07/23 02:56:52;;;;;;;32.60;22.23;;;16.60;99.90;;;;;;5029910;28;20087;-60
2022/07/23 02:59:18;;;;;;;36.20;22.83;;;16.60;99.90;;;;;;5032910;28;20026;-61
2022/07/23 03:01:44;;;;;;;34.35;23.50;;;16.70;99.90;;;;;;5032277;28;20495;-60
2022/07/23 03:04:10;;;;;;;33.53;21.58;;;16.60;99.90;;;;;;5033226;28;20464;-52
2022/07/23 03:06:36;;;;;;;33.72;23.20;;;16.60;99.90;;;;;;5031646;28;20021;-61
2022/07/23 03:09:03;;;;;;;29.58;20.85;;;16.60;99.90;;;;;;5021557;28;20498;-60
2022/07/23 03:11:28;;;;;;;29.75;20.20;;;16.60;99.90;;;;;;5029712;28;20087;-61
2022/07/23 03:13:54;;;;;;;28.50;19.88;;;16.50;99.90;;;;;;5030509;28;20025;-60
2022/07/23 03:16:19;;;;;;;35.47;23.23;;;16.50;99.90;;;;;;5032508;28;20052;-59
2022/07/23 03:18:45;;;;;;;33.47;20.63;;;16.50;99.90;;;;;;5029162;28;20033;-60
2022/07/23 03:21:11;;;;;;;29.65;19.90;;;16.50;99.90;;;;;;5026780;28;20112;-60
2022/07/23 03:23:36;;;;;;;30.33;20.95;;;16.50;99.90;;;;;;5032308;28;20025;-60
2022/07/23 03:26:03;;;;;;;33.42;21.75;;;16.50;99.90;;;;;;5027688;28;20402;-61
2022/07/23 03:28:28;;;;;;;31.25;20.92;;;16.50;99.90;;;;;;5027436;28;20029;-61
2022/07/23 03:30:54;;;;;;;31.55;21.25;;;16.50;99.90;;;;;;5031031;28;20552;-59
2022/07/23 03:33:20;;;;;;;36.63;22.70;;;16.50;99.90;;;;;;5031210;28;20025;-57
2022/07/23 03:35:47;;;;;;;35.33;20.95;;;16.40;99.90;;;;;;5021958;28;20109;-60
2022/07/23 03:38:13;;;;;;;28.52;20.88;;;16.40;99.90;;;;;;5028774;28;20041;-59
2022/07/23 03:40:39;;;;;;;36.55;21.27;;;16.40;99.90;;;;;;5029966;28;20523;-60
2022/07/23 03:43:05;;;;;;;31.30;19.10;;;16.40;99.90;;;;;;5031414;28;20128;-58
2022/07/23 03:45:31;;;;;;;30.95;19.75;;;16.40;99.90;;;;;;5032056;28;20039;-60
2022/07/23 03:47:57;;;;;;;32.05;20.15;;;16.30;99.90;;;;;;5031202;28;20028;-61
2022/07/23 03:50:23;;;;;;;31.10;19.88;;;16.30;99.90;;;;;;5029347;28;20499;-59
2022/07/23 03:52:49;;;;;;;29.33;20.25;;;16.20;99.90;;;;;;5030982;28;20104;-60
2022/07/23 03:55:15;;;;;;;34.63;19.70;;;16.20;99.90;;;;;;5029422;28;20116;-60
2022/07/23 03:57:41;;;;;;;31.23;21.05;;;16.20;99.90;;;;;;5028433;28;20025;-61
2022/07/23 04:00:12;;;;;;;31.40;19.73;;;16.10;99.90;;;;;;5030819;28;20512;-60
2022/07/23 04:02:38;;;;;;;36.97;21.40;;;16.10;99.90;;;;;;5031776;28;20032;-59
2022/07/23 04:05:05;;;;;;;27.52;17.88;;;16.00;99.90;;;;;;5030234;28;20022;-57
2022/07/23 04:07:30;;;;;;;29.20;19.80;;;16.00;99.90;;;;;;5028783;28;20055;-59
2022/07/23 04:09:56;;;;;;;29.27;19.05;;;16.00;99.90;;;;;;5023853;28;20033;-61
2022/07/23 04:12:22;;;;;;;30.42;19.25;;;16.00;99.90;;;;;;5028366;28;20029;-60
2022/07/23 04:14:48;;;;;;;29.77;18.90;;;16.00;99.90;;;;;;5026126;28;20033;-60
2022/07/23 04:17:14;;;;;;;33.95;20.48;;;15.90;99.90;;;;;;5028805;28;20084;-58
2022/07/23 04:19:41;;;;;;;31.75;20.33;;;16.00;99.90;;;;;;5030844;28;20029;-59
2022/07/23 04:22:07;;;;;;;29.40;17.75;;;15.90;99.90;;;;;;5029433;28;20021;-60
2022/07/23 04:24:33;;;;;;;28.73;19.15;;;15.90;99.90;;;;;;5030021;28;20432;-60
2022/07/23 04:26:59;;;;;;;29.08;18.63;;;15.90;99.90;;;;;;5029263;28;20026;-59
2022/07/23 04:29:24;;;;;;;33.40;18.50;;;16.00;99.90;;;;;;5029244;28;20045;-61
2022/07/23 04:31:50;;;;;;;28.40;18.80;;;16.00;99.90;;;;;;5029800;28;20034;-58
2022/07/23 04:34:16;;;;;;;29.88;19.35;;;16.10;99.90;;;;;;5029176;28;20025;-56
2022/07/23 04:36:42;;;;;;;28.08;20.27;;;16.10;99.90;;;;;;5030498;28;20033;-58
2022/07/23 04:39:08;;;;;;;29.35;18.30;;;16.20;99.90;;;;;;5029208;28;20095;-61
2022/07/23 04:41:34;;;;;;;25.65;15.27;;;16.40;99.90;;;;;;5028939;28;20041;-59
2022/07/23 04:44:00;;;;;;;24.85;15.32;;;16.70;99.90;;;;;;5023191;28;20044;-58
2022/07/23 04:46:27;;;;;;;23.90;14.57;;;17.20;99.90;;;;;;5025410;28;20029;-60
2022/07/23 04:48:53;;;;;;;18.90;13.55;;;17.90;99.90;;;;;;5027802;28;20041;-61
2022/07/23 04:51:19;;;;;;;16.25;11.95;;;18.60;99.90;;;;;;5029779;28;20040;-60
2022/07/23 04:53:44;;;;;;;17.75;12.43;;;19.20;99.90;;;;;;5029166;28;20026;-61
2022/07/23 04:56:10;;;;;;;18.05;11.73;;;19.80;99.90;;;;;;5028654;28;20022;-54
2022/07/23 04:58:36;;;;;;;16.95;11.35;;;20.30;99.90;;;;;;5029540;28;20018;-61
2022/07/23 05:01:01;;;;;;;15.30;10.85;;;21.00;99.90;;;;;;5029064;28;20037;-60
2022/07/23 05:03:27;;;;;;;17.80;10.55;;;21.30;99.90;;;;;;5030686;28;20033;-60
2022/07/23 05:05:53;;;;;;;14.45;9.98;;;21.70;99.90;;;;;;5029944;28;20219;-59
2022/07/23 05:08:19;;;;;;;13.13;10.48;;;22.00;99.90;;;;;;5029126;28;20032;-59
2022/07/23 05:10:44;;;;;;;13.20;11.13;;;22.40;99.90;;;;;;5047113;23;20044;-59
2022/07/23 05:13:10;;;;;;;17.77;11.38;;;22.70;99.90;;;;;;5030254;28;20048;-58
2022/07/23 05:15:35;;;;;;;17.35;10.63;;;23.00;99.90;;;;;;5025681;28;20022;-58
2022/07/23 05:18:01;;;;;;;19.27;11.02;;;23.20;99.90;;;;;;5028322;28;20037;-58
2022/07/23 05:20:27;;;;;;;17.73;11.30;;;23.30;99.90;;;;;;5030238;28;20030;-57
2022/07/23 05:22:52;;;;;;;18.45;10.90;;;23.70;99.90;;;;;;5029092;28;20399;-57
2022/07/23 05:25:18;;;;;;;17.23;11.50;;;23.90;99.90;;;;;;5027810;28;20079;-57
2022/07/23 05:27:43;;;;;;;18.52;10.63;;;23.90;99.00;;;;;;5028543;28;20036;-58
2022/07/23 05:30:10;;;;;;;11.52;9.60;;;24.40;99.00;;;;;;5030116;28;20040;-57
2022/07/23 05:32:36;;;;;;;12.75;9.95;;;24.30;98.60;;;;;;5019761;28;20752;-57
2022/07/23 05:35:03;;;;;;;14.32;9.52;;;24.80;97.80;;;;;;5028529;28;20400;-57
2022/07/23 05:37:29;;;;;;;11.93;9.80;;;25.10;97.60;;;;;;5025738;28;20033;-57
2022/07/23 05:39:54;;;;;;;14.18;10.48;;;25.20;96.30;;;;;;5028911;28;20025;-59
2022/07/23 05:42:20;;;;;;;12.50;10.02;;;25.70;96.60;;;;;;5027471;28;20029;-59
2022/07/23 05:44:45;;;;;;;14.07;9.88;;;25.70;95.80;;;;;;5028750;28;20427;-58
2022/07/23 05:47:11;;;;;;;12.55;9.52;;;27.10;93.80;;;;;;5028093;28;20041;-58
2022/07/23 05:49:40;;;;;;;14.40;9.90;;;26.80;93.30;;;;;;5027235;28;20033;-59
2022/07/23 05:52:06;;;;;;;10.75;9.05;;;27.40;92.10;;;;;;5029047;28;20033;-58
2022/07/23 05:54:35;;;;;;;10.45;8.55;;;26.70;92.60;;;;;;5028885;28;20398;-57
2022/07/23 05:57:01;;;;;;;13.13;9.23;;;26.30;92.40;;;;;;5027393;28;20030;-58
2022/07/23 05:59:26;;;;;;;10.60;8.80;;;26.00;93.10;;;;;;5029859;28;20497;-59
2022/07/23 06:01:52;;;;;;;13.30;9.65;;;26.50;93.10;;;;;;5031409;28;20514;-59
2022/07/23 06:04:17;;;;;;;10.68;9.57;;;26.00;93.00;;;;;;5032158;28;20026;-58
2022/07/23 06:06:43;;;;;;;12.52;10.20;;;25.50;93.40;;;;;;5031608;28;20021;-57
2022/07/23 06:09:10;;;;;;;13.50;10.05;;;25.70;93.40;;;;;;5032895;28;20033;-58
2022/07/23 06:11:36;;;;;;;11.07;8.77;;;25.40;94.80;;;;;;5032551;28;20029;-56
2022/07/23 06:14:02;;;;;;;12.90;8.75;;;25.80;94.20;;;;;;5033671;28;20537;-59
2022/07/23 06:16:28;;;;;;;10.43;8.10;;;26.50;91.90;;;;;;5032065;28;20013;-59
2022/07/23 06:18:53;;;;;;;13.68;9.10;;;26.80;91.60;;;;;;5032037;28;20104;-59
2022/07/23 06:21:19;;;;;;;10.73;8.32;;;26.20;92.00;;;;;;5030532;28;20077;-59
2022/07/23 06:23:44;;;;;;;15.88;10.02;;;26.90;92.50;;;;;;5033177;28;20399;-56
2022/07/23 06:26:10;;;;;;;12.00;8.38;;;27.20;90.00;;;;;;5031716;28;20087;-59
2022/07/23 06:28:36;;;;;;;8.93;7.53;;;27.30;89.20;;;;;;5031279;28;20037;-59
2022/07/23 06:31:01;;;;;;;14.77;8.57;;;27.70;88.50;;;;;;5033650;28;20533;-59
2022/07/23 06:33:27;;;;;;;11.57;7.65;;;28.00;88.50;;;;;;5033478;28;20035;-59
2022/07/23 06:35:53;;;;;;;11.45;8.82;;;27.80;87.80;;;;;;5030974;28;20022;-59
2022/07/23 06:38:18;;;;;;;9.90;8.15;;;27.10;87.20;;;;;;5030164;28;20033;-59
2022/07/23 06:40:44;;;;;;;10.00;7.32;;;27.50;88.20;;;;;;5036243;28;20029;-59
2022/07/23 06:43:10;;;;;;;9.55;7.80;;;27.90;89.60;;;;;;5035480;28;20032;-60
2022/07/23 06:45:36;;;;;;;13.18;7.72;;;28.30;87.80;;;;;;5030925;28;20029;-59
2022/07/23 06:48:02;;;;;;;9.13;7.85;;;29.00;87.10;;;;;;5031409;28;20044;-60
2022/07/23 06:50:28;;;;;;;9.77;6.88;;;29.60;82.30;;;;;;5031922;28;20513;-60
2022/07/23 06:52:54;;;;;;;7.72;6.70;;;30.00;80.60;;;;;;5030107;28;20164;-56
2022/07/23 06:55:20;;;;;;;8.70;6.35;;;30.40;75.90;;;;;;5031468;28;20096;-58
2022/07/23 06:57:45;;;;;;;7.60;5.97;;;30.20;76.80;;;;;;5030592;28;20025;-58
2022/07/23 07:00:11;;;;;;;8.65;6.68;;;30.00;78.20;;;;;;5006612;28;20041;-58
2022/07/23 07:02:37;;;;;;;7.43;6.00;;;29.80;74.00;;;;;;5030144;28;20029;-55
2022/07/23 07:05:03;;;;;;;7.18;5.20;;;29.90;76.10;;;;;;5029930;28;20387;-57
2022/07/23 07:07:29;;;;;;;6.20;5.25;;;30.80;72.80;;;;;;5029739;28;20094;-57
2022/07/23 07:09:54;;;;;;;5.45;4.95;;;31.10;70.30;;;;;;5030055;28;20049;-57
2022/07/23 07:12:20;;;;;;;7.65;5.00;;;31.10;68.90;;;;;;5029436;28;20029;-55
2022/07/23 07:14:46;;;;;;;9.15;5.13;;;32.00;68.60;;;;;;5031344;28;20022;-57
2022/07/23 07:17:12;;;;;;;5.78;4.60;;;31.10;68.90;;;;;;5028057;28;20462;-58
2022/07/23 07:19:37;;;;;;;5.18;4.50;;;31.40;70.80;;;;;;5030000;28;20025;-57
2022/07/23 07:22:03;;;;;;;6.85;4.40;;;31.60;70.50;;;;;;5026820;28;20112;-57
2022/07/23 07:24:29;;;;;;;5.55;4.20;;;31.60;67.70;;;;;;5030035;28;20029;-58
2022/07/23 07:26:55;;;;;;;4.35;3.38;;;32.70;65.50;;;;;;5025427;28;20463;-60
2022/07/23 07:29:20;;;;;;;7.25;5.20;;;33.00;62.50;;;;;;5024739;28;20032;-58
2022/07/23 07:31:46;;;;;;;6.68;4.53;;;31.40;64.60;;;;;;5033211;28;20021;-58
2022/07/23 07:34:11;;;;;;;6.10;4.53;;;31.00;66.00;;;;;;5034707;28;20065;-58
2022/07/23 07:36:37;;;;;;;6.55;4.68;;;32.00;66.30;;;;;;5031183;28;20033;-56
2022/07/23 07:39:04;;;;;;;7.05;5.30;;;32.60;64.50;;;;;;5027011;28;20025;-59
2022/07/23 07:41:31;;;;;;;7.50;5.72;;;31.60;64.20;;;;;;5024969;28;20537;-57
2022/07/23 07:43:57;;;;;;;8.80;5.78;;;31.80;65.90;;;;;;5025040;28;20108;-58
2022/07/23 07:46:23;;;;;;;6.60;5.43;;;32.20;64.40;;;;;;5028267;28;20105;-56
2022/07/23 07:48:50;;;;;;;8.27;5.15;;;32.60;64.20;;;;;;5027287;28;20124;-58
2022/07/23 07:51:16;;;;;;;7.97;5.72;;;33.00;63.70;;;;;;5026893;28;20036;-58
2022/07/23 07:53:41;;;;;;;9.18;5.63;;;32.80;62.70;;;;;;5030572;28;20104;-57
2022/07/23 07:56:07;;;;;;;9.63;5.68;;;31.80;65.00;;;;;;5028187;28;20588;-56
2022/07/23 07:58:33;;;;;;;7.47;4.80;;;31.90;64.90;;;;;;5026053;28;20025;-58
2022/07/23 08:01:00;;;;;;;8.77;4.80;;;33.20;62.70;;;;;;5019286;28;20028;-58
2022/07/23 08:03:26;;;;;;;6.53;4.38;;;32.10;63.30;;;;;;5030280;28;20025;-59
2022/07/23 08:05:52;;;;;;;7.10;4.30;;;32.20;65.20;;;;;;5030373;28;20029;-59
2022/07/23 08:08:18;;;;;;;7.25;4.93;;;32.00;65.20;;;;;;5029049;28;20585;-58
2022/07/23 08:10:44;;;;;;;6.65;4.28;;;32.50;64.80;;;;;;5029883;28;20069;-57
2022/07/23 08:13:14;;;;;;;8.27;4.75;;;33.00;62.90;;;;;;5029689;28;20072;-55
2022/07/23 08:15:40;;;;;;;7.28;4.50;;;32.10;61.90;;;;;;5024818;28;20036;-59
2022/07/23 08:18:06;;;;;;;8.45;4.63;;;32.00;63.60;;;;;;5028465;28;20053;-59
2022/07/23 08:20:32;;;;;;;6.65;4.95;;;32.00;63.00;;;;;;5029813;28;20060;-57
2022/07/23 08:23:05;;;;;;;8.05;4.50;;;31.70;63.40;;;;;;5028569;28;20053;-58
2022/07/23 08:25:40;;;;;;;6.30;3.60;;;30.60;64.90;;;;;;5029040;28;20116;-57
2022/07/23 08:28:07;;;;;;;7.90;4.20;;;30.80;65.80;;;;;;5029006;28;20056;-58
2022/07/23 08:30:34;;;;;;;6.82;4.13;;;31.50;63.40;;;;;;5028397;28;20048;-58
2022/07/23 08:33:03;;;;;;;5.40;3.88;;;31.50;63.80;;;;;;5026748;28;20030;-50
2022/07/23 08:35:33;;;;;;;6.63;4.22;;;32.10;62.40;;;;;;5027739;28;20071;-58
2022/07/23 08:38:01;;;;;;;8.63;4.93;;;32.10;62.00;;;;;;5026243;28;20053;-59
2022/07/23 08:40:29;;;;;;;8.40;5.00;;;32.20;63.00;;;;;;5030207;28;20024;-57
2022/07/23 08:42:55;;;;;;;6.68;4.40;;;31.60;63.30;;;;;;5030079;28;20490;-57
2022/07/23 08:45:22;;;;;;;8.68;4.22;;;30.90;66.80;;;;;;5026651;28;20038;-58
2022/07/23 08:47:55;;;;;;;7.75;4.53;;;31.10;64.90;;;;;;5025337;28;20614;-57
2022/07/23 08:50:23;;;;;;;8.68;5.60;;;31.60;63.70;;;;;;5027075;28;20072;-58
2022/07/23 08:52:50;;;;;;;8.38;5.07;;;31.50;62.60;;;;;;5027632;28;20029;-60
2022/07/23 08:55:18;;;;;;;8.38;4.45;;;31.30;63.00;;;;;;5026905;28;20064;-57
2022/07/23 08:57:44;;;;;;;8.05;3.95;;;31.90;63.30;;;;;;5025696;28;20067;-56
2022/07/23 09:00:11;;;;;;;4.82;3.55;;;31.90;60.60;;;;;;5029074;28;20039;-59
2022/07/23 09:02:41;;;;;;;9.25;5.35;;;31.70;63.30;;;;;;5012032;28;20270;-59
2022/07/23 09:05:08;;;;;;;7.65;4.10;;;31.60;63.80;;;;;;5028810;28;20083;-58
2022/07/23 09:07:33;;;;;;;7.30;4.93;;;32.00;62.30;;;;;;5024142;28;20074;-58
2022/07/23 09:10:10;;;;;;;7.25;4.25;;;31.50;61.80;;;;;;5028530;28;20033;-57
2022/07/23 09:12:37;;;;;;;9.63;3.83;;;31.60;64.60;;;;;;5027030;28;20048;-57
2022/07/23 09:15:08;;;;;;;5.72;3.92;;;31.70;63.30;;;;;;5029615;28;20017;-56
2022/07/23 09:17:42;;;;;;;7.18;3.67;;;32.00;60.30;;;;;;5024569;28;20108;-56
2022/07/23 09:20:15;;;;;;;5.35;3.30;;;31.70;61.10;;;;;;5027664;28;20120;-57
2022/07/23 09:22:48;;;;;;;6.95;4.07;;;31.40;61.90;;;;;;5018256;28;20034;-58
2022/07/23 09:25:18;;;;;;;5.03;3.50;;;31.30;61.00;;;;;;5022856;28;20037;-58
2022/07/23 09:27:59;;;;;;;8.65;3.47;;;31.10;61.80;;;;;;5017691;28;20041;-58
2022/07/23 09:30:27;;;;;;;7.13;3.85;;;31.20;63.10;;;;;;5029289;28;20032;-58
2022/07/23 09:33:06;;;;;;;7.55;3.70;;;31.40;64.60;;;;;;5031922;28;20029;-58
2022/07/23 09:35:50;;;;;;;5.93;4.10;;;32.10;61.30;;;;;;5024403;28;20395;-59
2022/07/23 09:38:16;;;;;;;4.63;3.47;;;32.00;62.00;;;;;;5027095;28;20094;-54
2022/07/23 09:40:43;;;;;;;5.75;3.00;;;31.50;61.40;;;;;;5027684;28;20523;-58
2022/07/23 09:43:09;;;;;;;8.15;3.75;;;31.00;63.10;;;;;;5023426;28;20025;-58
2022/07/23 09:45:35;;;;;;;5.65;3.35;;;31.00;62.30;;;;;;5026302;28;20095;-58
2022/07/23 09:48:17;;;;;;;15.50;4.57;;;31.00;63.70;;;;;;5027009;28;20439;-59
2022/07/23 09:50:44;;;;;;;7.57;4.00;;;30.60;64.80;;;;;;5028411;28;20434;-59
2022/07/23 09:53:30;;;;;;;7.38;3.97;;;30.50;65.50;;;;;;5029314;28;20115;-56
2022/07/23 09:55:59;;;;;;;5.80;3.78;;;29.60;65.90;;;;;;5027366;28;20392;-58
2022/07/23 09:58:28;;;;;;;7.70;3.75;;;30.00;66.50;;;;;;5027285;28;20039;-58
2022/07/23 10:00:55;;;;;;;5.18;3.25;;;30.10;64.40;;;;;;5027808;28;20025;-58
2022/07/23 10:03:23;;;;;;;5.90;3.60;;;30.90;63.00;;;;;;5017624;28;20045;-58
2022/07/23 10:05:49;;;;;;;6.78;3.45;;;30.70;64.40;;;;;;5024141;28;20028;-58
2022/07/23 10:08:18;;;;;;;8.57;3.30;;;30.60;62.80;;;;;;5028126;28;20103;-58
2022/07/23 10:10:46;;;;;;;8.32;3.95;;;29.90;64.40;;;;;;5029959;28;20034;-58
2022/07/23 10:15:40;;;;;;;10.45;3.33;;;29.20;65.50;;;;;;5027041;28;20503;-58
2022/07/23 10:18:06;;;;;;;6.28;3.28;;;29.20;66.50;;;;;;5028971;28;20109;-54
2022/07/23 10:20:32;;;;;;;5.78;3.42;;;29.60;66.20;;;;;;5026909;28;20025;-57
2022/07/23 10:23:21;;;;;;;8.30;4.38;;;29.30;64.90;;;;;;5028386;28;20029;-59
2022/07/23 10:26:33;;;;;;;5.95;3.45;;;28.50;65.40;;;;;;5023466;28;20402;-60
2022/07/23 10:29:08;;;;;;;7.05;3.33;;;28.20;65.60;;;;;;5020412;28;20044;-60
2022/07/23 10:32:02;;;;;;;7.75;2.90;;;27.90;67.10;;;;;;5022977;28;20034;-55
2022/07/23 10:34:27;;;;;;;;;;;27.90;68.10;;;;;;5026245;28;20033;-59
2022/07/23 10:37:19;;;;;;;6.32;3.30;;;27.90;70.30;;;;;;5025430;28;19909;-57
2022/07/23 10:39:45;;;;;;;9.68;3.50;;;27.60;69.30;;;;;;5027675;28;20475;-57
2022/07/23 10:42:15;;;;;;;8.52;3.72;;;27.60;70.30;;;;;;5028119;28;20052;-59
2022/07/23 10:44:47;;;;;;;4.75;2.30;;;27.40;70.00;;;;;;5026584;28;20788;-59
2022/07/23 10:50:36;;;;;;;6.00;3.20;;;27.50;67.90;;;;;;5028606;28;20113;-58
2022/07/23 10:53:18;;;;;;;6.50;3.05;;;27.60;67.70;;;;;;5025330;28;20045;-58
2022/07/23 10:55:45;;;;;;;7.45;2.90;;;27.10;68.80;;;;;;5020591;28;20033;-59
2022/07/23 10:58:11;;;;;;;4.85;2.67;;;27.10;67.90;;;;;;5017826;28;20026;-58
2022/07/23 11:00:37;;;;;;;6.30;3.42;;;27.10;67.40;;;;;;5025192;28;20033;-58
2022/07/23 11:03:08;;;;;;;5.57;3.28;;;26.90;69.40;;;;;;5026808;28;20032;-59
2022/07/23 11:05:45;;;;;;;5.57;2.90;;;26.90;69.60;;;;;;5027257;28;20025;-59
2022/07/23 11:08:19;;;;;;;6.00;2.88;;;26.50;70.80;;;;;;5018287;28;20088;-58
2022/07/23 11:10:54;;;;;;;3.58;2.80;;;26.00;70.30;;;;;;5027330;28;20113;-58
2022/07/23 11:13:22;;;;;;;3.88;2.88;;;26.00;70.80;;;;;;5025631;28;20368;-58
2022/07/23 11:16:16;;;;;;;5.22;3.60;;;26.00;70.70;;;;;;5025131;28;20108;-57
2022/07/23 11:18:47;;;;;;;5.43;3.38;;;26.00;70.00;;;;;;5023288;28;20026;-58
2022/07/23 11:21:29;;;;;;;5.93;2.95;;;26.10;70.40;;;;;;5026180;28;20033;-59
2022/07/23 11:23:57;;;;;;;7.25;3.53;;;26.10;70.30;;;;;;5021929;28;20022;-58
2022/07/23 11:26:41;;;;;;;8.95;3.47;;;26.20;71.30;;;;;;5018230;28;20656;-60
2022/07/23 11:29:28;;;;;;;;;;;25.90;71.20;;;;;;5020499;28;20025;-58
2022/07/23 11:32:17;;;;;;;8.68;2.65;;;26.10;72.40;;;;;;5017721;28;19920;-56
2022/07/23 11:34:46;;;;;;;2.67;2.15;;;25.90;69.90;;;;;;5027239;28;20212;-58
2022/07/23 11:37:26;;;;;;;4.07;2.60;;;26.10;71.80;;;;;;5030842;28;20215;-59
2022/07/23 11:39:55;;;;;;;7.90;2.60;;;26.40;71.60;;;;;;5030732;28;20108;-55
2022/07/23 11:42:20;;;;;;;7.53;2.50;;;26.70;70.30;;;;;;5028100;28;20092;-56
2022/07/23 11:44:48;;;;;;;6.57;3.40;;;26.70;69.50;;;;;;5025834;28;20065;-59
2022/07/23 11:47:13;;;;;;;4.75;2.88;;;26.50;69.50;;;;;;5031472;28;20384;-55
2022/07/23 11:49:58;;;;;;;6.63;2.95;;;26.30;73.50;;;;;;5029104;28;20040;-55
2022/07/23 11:52:25;;;;;;;3.80;2.40;;;26.30;70.90;;;;;;5022264;28;20030;-57
2022/07/23 11:54:51;;;;;;;3.40;2.25;;;26.60;70.50;;;;;;5029489;28;20049;-58
2022/07/23 11:57:18;;;;;;;6.53;2.60;;;26.70;68.50;;;;;;5025746;28;20059;-55
2022/07/23 11:59:45;;;;;;;4.85;2.97;;;26.70;70.10;;;;;;5021259;28;20467;-58
2022/07/23 12:02:11;;;;;;;5.03;3.30;;;26.70;68.20;;;;;;5028917;28;20030;-59
2022/07/23 12:04:48;;;;;;;4.78;2.72;;;26.50;68.40;;;;;;5030007;28;20041;-57
2022/07/23 12:07:44;;;;;;;5.68;3.10;;;26.30;69.50;;;;;;5030376;28;20113;-58
2022/07/23 12:10:24;;;;;;;3.85;2.83;;;25.90;70.50;;;;;;5011981;28;20166;-58
2022/07/23 12:12:52;;;;;;;3.92;2.50;;;25.90;69.30;;;;;;5023140;28;20029;-56
2022/07/23 12:15:41;;;;;;;6.32;3.15;;;25.80;70.30;;;;;;5032382;28;20131;-59
2022/07/23 12:18:09;;;;;;;3.88;2.30;;;26.00;68.40;;;;;;5030856;28;20064;-53
2022/07/23 12:20:41;;;;;;;4.30;2.30;;;26.20;66.90;;;;;;5035234;28;20025;-55
2022/07/23 12:23:09;;;;;;;5.60;2.90;;;26.10;69.30;;;;;;5031061;28;20044;-56
2022/07/23 12:25:38;;;;;;;2.42;2.20;;;26.10;68.00;;;;;;5031630;28;20263;-56
2022/07/23 12:28:14;;;;;;;4.00;2.90;;;26.20;69.00;;;;;;5030270;28;20071;-55
2022/07/23 12:30:47;;;;;;;4.72;2.50;;;26.40;67.80;;;;;;5024116;28;20028;-57
2022/07/23 12:33:15;;;;;;;4.18;2.90;;;26.40;67.60;;;;;;5029882;28;20033;-55
2022/07/23 12:35:46;;;;;;;4.15;2.47;;;26.40;68.00;;;;;;5030407;28;20491;-56
2022/07/23 12:38:15;;;;;;;3.08;2.55;;;26.30;68.70;;;;;;5023880;28;20034;-56
2022/07/23 12:40:40;;;;;;;3.85;3.00;;;26.20;67.20;;;;;;5030255;28;20029;-56
2022/07/23 12:43:09;;;;;;;4.32;2.83;;;26.20;66.00;;;;;;5029766;28;20410;-57
2022/07/23 12:45:45;;;;;;;3.78;3.20;;;26.30;68.90;;;;;;5031517;28;20021;-56
2022/07/23 12:48:23;;;;;;;4.00;3.17;;;26.30;65.70;;;;;;5030560;28;20035;-56